createdAt,value
2022-07-26T00:01:04.756Z,3.30
2022-07-26T00:03:33.014Z,3.30
2022-07-26T00:06:01.458Z,2.92
2022-07-26T00:08:29.473Z,3.25
2022-07-26T00:10:57.569Z,2.78
2022-07-26T00:13:27.967Z,2.80
2022-07-26T00:15:59.974Z,2.65
2022-07-26T00:18:28.456Z,2.78
2022-07-26T00:20:56.729Z,3.25
2022-07-26T00:23:26.038Z,2.85
2022-07-26T00:25:54.060Z,2.20
2022-07-26T00:28:22.086Z,2.72
2022-07-26T00:30:50.034Z,3.10
2022-07-26T00:33:19.382Z,2.20
2022-07-26T00:35:47.396Z,2.10
2022-07-26T00:38:15.382Z,1.77
2022-07-26T00:40:43.397Z,2.00
2022-07-26T00:43:11.335Z,2.00
2022-07-26T00:45:39.419Z,2.28
2022-07-26T00:48:07.743Z,1.63
2022-07-26T00:50:37.228Z,1.77
2022-07-26T00:53:05.393Z,2.00
2022-07-26T00:55:33.666Z,1.55
2022-07-26T00:58:02.241Z,2.10
2022-07-26T01:00:38.401Z,1.50
2022-07-26T01:03:06.383Z,1.70
2022-07-26T01:05:35.478Z,1.60
2022-07-26T01:08:05.098Z,1.73
2022-07-26T01:10:36.440Z,1.90
2022-07-26T01:13:04.517Z,1.60
2022-07-26T01:15:32.577Z,1.90
2022-07-26T01:18:00.615Z,1.50
2022-07-26T01:20:28.888Z,1.60
2022-07-26T01:22:58.286Z,1.70
2022-07-26T01:25:43.193Z,1.70
2022-07-26T01:28:19.819Z,1.52
2022-07-26T01:30:48.961Z,1.63
2022-07-26T01:33:17.437Z,1.52
2022-07-26T01:35:45.699Z,1.80
2022-07-26T01:38:15.223Z,1.67
2022-07-26T01:40:43.425Z,2.17
2022-07-26T01:43:11.404Z,1.67
2022-07-26T01:45:39.535Z,1.77
2022-07-26T01:48:08.560Z,1.50
2022-07-26T01:50:36.741Z,1.65
2022-07-26T01:53:06.170Z,1.30
2022-07-26T01:55:35.934Z,1.63
2022-07-26T01:58:03.988Z,1.50
2022-07-26T02:00:32.640Z,1.52
2022-07-26T02:03:00.707Z,1.48
2022-07-26T02:05:28.863Z,2.10
2022-07-26T02:07:56.959Z,1.92
2022-07-26T02:10:25.045Z,2.00
2022-07-26T02:12:55.165Z,1.60
2022-07-26T02:15:23.108Z,1.45
2022-07-26T02:17:51.169Z,1.50
2022-07-26T02:20:19.177Z,1.60
2022-07-26T02:22:47.103Z,1.70
2022-07-26T02:25:15.047Z,1.40
2022-07-26T02:27:43.102Z,1.50
2022-07-26T02:30:13.611Z,1.42
2022-07-26T02:32:43.889Z,1.60
2022-07-26T02:35:12.203Z,1.50
2022-07-26T02:37:42.496Z,1.70
2022-07-26T02:40:18.657Z,2.00
2022-07-26T02:42:47.409Z,1.50
2022-07-26T02:45:16.837Z,1.60
2022-07-26T02:47:48.589Z,1.50
2022-07-26T02:50:18.455Z,1.42
2022-07-26T02:52:48.193Z,1.23
2022-07-26T02:55:17.097Z,1.45
2022-07-26T02:57:46.530Z,1.77
2022-07-26T03:00:18.219Z,1.50
2022-07-26T03:02:46.242Z,1.60
2022-07-26T03:05:14.222Z,1.60
2022-07-26T03:07:42.253Z,1.90
2022-07-26T03:10:10.849Z,1.40
2022-07-26T03:12:38.836Z,1.90
2022-07-26T03:15:07.428Z,1.70
2022-07-26T03:17:36.919Z,1.50
2022-07-26T03:20:05.920Z,1.50
2022-07-26T03:22:33.888Z,1.75
2022-07-26T03:25:02.070Z,1.80
2022-07-26T03:27:30.036Z,1.52
2022-07-26T03:29:57.999Z,1.87
2022-07-26T03:32:26.035Z,2.17
2022-07-26T03:34:55.300Z,1.80
2022-07-26T03:37:23.260Z,1.80
2022-07-26T03:39:51.263Z,1.80
2022-07-26T03:42:19.231Z,1.70
2022-07-26T03:44:47.132Z,1.67
2022-07-26T03:47:15.118Z,1.40
2022-07-26T03:49:43.051Z,1.80
2022-07-26T03:52:12.302Z,1.30
2022-07-26T03:54:40.215Z,1.67
2022-07-26T03:57:07.174Z,1.70
2022-07-26T03:59:35.198Z,1.60
2022-07-26T04:02:03.298Z,1.80
2022-07-26T04:04:31.606Z,1.80
2022-07-26T04:07:03.271Z,1.42
2022-07-26T04:09:33.203Z,1.40
2022-07-26T04:12:01.248Z,1.40
2022-07-26T04:14:29.167Z,1.42
2022-07-26T04:16:57.115Z,1.40
2022-07-26T04:19:25.042Z,1.60
2022-07-26T04:21:52.905Z,1.30
2022-07-26T04:24:20.872Z,1.50
2022-07-26T04:26:54.897Z,1.50
2022-07-26T04:29:22.777Z,1.40
2022-07-26T04:31:50.722Z,1.70
2022-07-26T04:34:18.629Z,1.57
2022-07-26T04:36:46.722Z,1.67
2022-07-26T04:39:14.621Z,1.30
2022-07-26T04:41:42.538Z,1.70
2022-07-26T04:44:12.055Z,1.40
2022-07-26T04:46:44.877Z,1.50
2022-07-26T04:49:13.893Z,1.35
2022-07-26T04:51:41.842Z,1.30
2022-07-26T04:54:10.273Z,1.27
2022-07-26T04:56:38.636Z,1.50
2022-07-26T04:59:06.572Z,1.63
2022-07-26T05:01:35.912Z,1.73
2022-07-26T05:04:03.938Z,1.83
2022-07-26T05:06:32.234Z,1.50
2022-07-26T05:09:00.482Z,1.40
2022-07-26T05:11:28.459Z,1.10
2022-07-26T05:13:56.420Z,1.20
2022-07-26T05:16:24.356Z,1.50
2022-07-26T05:18:53.677Z,1.20
2022-07-26T05:21:21.590Z,1.70
2022-07-26T05:23:49.554Z,1.30
2022-07-26T05:26:17.451Z,1.38
2022-07-26T05:28:45.420Z,1.30
2022-07-26T05:31:13.408Z,1.50
2022-07-26T05:33:41.395Z,1.50
2022-07-26T05:36:11.001Z,1.30
2022-07-26T05:38:39.203Z,1.27
2022-07-26T05:41:07.768Z,1.50
2022-07-26T05:43:41.532Z,1.43
2022-07-26T05:46:11.072Z,1.40
2022-07-26T05:48:39.578Z,1.35
2022-07-26T05:51:07.657Z,1.40
2022-07-26T05:53:37.709Z,1.88
2022-07-26T05:56:06.353Z,1.38
2022-07-26T05:58:34.390Z,1.80
2022-07-26T06:01:02.390Z,1.50
2022-07-26T06:03:32.034Z,1.20
2022-07-26T06:06:00.720Z,1.40
2022-07-26T06:08:29.214Z,1.50
2022-07-26T06:10:59.026Z,1.40
2022-07-26T06:13:27.107Z,1.80
2022-07-26T06:15:55.078Z,1.30
2022-07-26T06:18:23.209Z,1.70
2022-07-26T06:20:51.163Z,1.30
2022-07-26T06:23:33.790Z,1.20
2022-07-26T06:26:05.278Z,1.23
2022-07-26T06:28:33.966Z,1.33
2022-07-26T06:31:02.027Z,1.17
2022-07-26T06:33:30.106Z,1.42
2022-07-26T06:35:58.070Z,1.50
2022-07-26T06:38:26.035Z,1.60
2022-07-26T06:40:54.167Z,1.50
2022-07-26T06:43:23.473Z,1.20
2022-07-26T06:45:51.593Z,1.42
2022-07-26T06:48:19.651Z,1.50
2022-07-26T06:50:47.762Z,1.20
2022-07-26T06:53:15.752Z,1.50
2022-07-26T06:55:44.038Z,1.38
2022-07-26T06:58:11.969Z,1.20
2022-07-26T07:00:41.329Z,1.58
2022-07-26T07:03:09.440Z,1.52
2022-07-26T07:05:37.374Z,1.17
2022-07-26T07:08:07.418Z,1.10
2022-07-26T07:10:35.481Z,1.30
2022-07-26T07:13:04.051Z,1.20
2022-07-26T07:15:32.043Z,1.30
2022-07-26T07:18:01.450Z,1.30
2022-07-26T07:20:29.543Z,1.30
2022-07-26T07:22:57.540Z,1.15
2022-07-26T07:25:30.385Z,1.20
2022-07-26T07:27:59.135Z,1.23
2022-07-26T07:30:28.067Z,1.30
2022-07-26T07:32:56.724Z,1.30
2022-07-26T07:35:31.602Z,1.10
2022-07-26T07:38:00.583Z,1.20
2022-07-26T07:40:28.549Z,1.00
2022-07-26T07:42:58.240Z,1.30
2022-07-26T07:45:26.235Z,1.08
2022-07-26T07:47:54.252Z,0.85
2022-07-26T07:50:22.236Z,0.93
2022-07-26T07:52:58.057Z,0.90
2022-07-26T07:55:43.943Z,1.00
2022-07-26T07:58:15.685Z,1.00
2022-07-26T08:00:45.418Z,0.82
2022-07-26T08:03:18.604Z,1.02
2022-07-26T08:05:49.913Z,1.25
2022-07-26T08:08:22.308Z,0.80
2022-07-26T08:10:52.782Z,1.30
2022-07-26T08:13:21.934Z,0.90
2022-07-26T08:15:50.597Z,1.10
2022-07-26T08:18:21.640Z,1.20
2022-07-26T08:20:51.215Z,0.80
2022-07-26T08:23:21.100Z,1.00
2022-07-26T08:25:56.989Z,0.90
2022-07-26T08:31:15.432Z,0.90
2022-07-26T08:33:46.367Z,0.90
2022-07-26T08:36:15.105Z,1.00
2022-07-26T08:38:44.611Z,1.13
2022-07-26T08:41:15.589Z,1.20
2022-07-26T08:43:45.255Z,1.00
2022-07-26T08:46:24.691Z,0.93
2022-07-26T08:48:54.193Z,0.75
2022-07-26T08:51:24.895Z,0.80
2022-07-26T08:54:04.286Z,0.90
2022-07-26T08:56:34.859Z,0.82
2022-07-26T08:59:05.828Z,0.80
2022-07-26T09:01:34.197Z,0.70
2022-07-26T09:04:31.032Z,1.00
2022-07-26T09:07:03.899Z,0.80
2022-07-26T09:09:34.629Z,0.80
2022-07-26T09:12:15.955Z,1.00
2022-07-26T09:14:46.613Z,0.90
2022-07-26T09:17:15.682Z,0.90
2022-07-26T09:19:44.207Z,1.20
2022-07-26T09:22:13.467Z,1.00
2022-07-26T09:24:43.996Z,0.90
2022-07-26T09:27:13.497Z,0.90
2022-07-26T09:29:46.107Z,0.98
2022-07-26T09:32:19.615Z,1.70
2022-07-26T09:34:52.949Z,1.00
2022-07-26T09:37:35.739Z,1.10
2022-07-26T09:40:08.812Z,0.90
2022-07-26T09:42:37.330Z,1.15
2022-07-26T09:45:16.736Z,0.90
2022-07-26T09:47:44.704Z,1.10
2022-07-26T09:50:15.154Z,1.13
2022-07-26T09:53:03.174Z,1.30
2022-07-26T09:55:42.486Z,1.10
2022-07-26T09:58:14.100Z,1.30
2022-07-26T10:00:42.614Z,1.40
2022-07-26T10:03:11.018Z,1.50
2022-07-26T10:05:39.110Z,1.10
2022-07-26T10:08:08.350Z,1.45
2022-07-26T10:10:44.503Z,1.10
2022-07-26T10:13:12.962Z,1.00
2022-07-26T10:15:43.486Z,1.00
2022-07-26T10:18:16.579Z,1.20
2022-07-26T10:20:50.715Z,1.40
2022-07-26T10:23:42.090Z,1.30
2022-07-26T10:26:14.973Z,0.98
2022-07-26T10:28:43.222Z,1.40
2022-07-26T10:31:31.466Z,0.90
2022-07-26T10:34:02.286Z,1.17
2022-07-26T10:36:35.285Z,1.07
2022-07-26T10:39:09.767Z,1.10
2022-07-26T10:41:45.090Z,1.10
2022-07-26T10:44:27.515Z,1.13
2022-07-26T10:47:15.506Z,1.10
2022-07-26T10:49:53.744Z,0.90
2022-07-26T10:52:23.168Z,1.20
2022-07-26T10:55:09.961Z,1.08
2022-07-26T10:57:40.961Z,1.00
2022-07-26T11:00:14.154Z,1.40
2022-07-26T11:02:43.867Z,1.40
2022-07-26T11:05:16.609Z,1.10
2022-07-26T11:08:12.954Z,1.00
2022-07-26T11:10:42.843Z,1.65
2022-07-26T11:13:14.849Z,1.20
2022-07-26T11:15:46.639Z,1.20
2022-07-26T11:18:21.290Z,1.20
2022-07-26T11:20:52.848Z,1.30
2022-07-26T11:23:23.067Z,1.10
2022-07-26T11:26:11.982Z,1.33
2022-07-26T11:28:53.501Z,1.30
2022-07-26T11:31:24.404Z,1.40
2022-07-26T11:34:18.233Z,1.20
2022-07-26T11:36:47.010Z,1.30
2022-07-26T11:39:16.880Z,1.00
2022-07-26T11:41:44.927Z,1.40
2022-07-26T11:44:21.867Z,1.25
2022-07-26T11:46:50.613Z,1.30
2022-07-26T11:49:20.955Z,1.40
2022-07-26T11:51:53.706Z,1.10
2022-07-26T11:54:22.609Z,2.10
2022-07-26T11:56:55.732Z,1.20
2022-07-26T11:59:26.152Z,1.40
2022-07-26T12:01:55.142Z,1.30
2022-07-26T12:04:24.898Z,1.40
2022-07-26T12:06:53.837Z,1.13
2022-07-26T12:09:32.913Z,1.70
2022-07-26T12:12:02.240Z,1.43
2022-07-26T12:14:34.776Z,1.60
2022-07-26T12:17:12.474Z,1.90
2022-07-26T12:19:40.750Z,1.67
2022-07-26T12:22:13.534Z,1.80
2022-07-26T12:24:44.717Z,1.88
2022-07-26T12:27:15.429Z,1.70
2022-07-26T12:29:46.130Z,1.40
2022-07-26T12:32:17.004Z,1.57
2022-07-26T12:34:56.668Z,1.50
2022-07-26T12:37:33.712Z,1.60
2022-07-26T12:40:10.338Z,1.83
2022-07-26T12:42:40.661Z,1.40
2022-07-26T12:45:12.177Z,1.40
2022-07-26T12:47:42.029Z,1.52
2022-07-26T12:50:12.611Z,1.73
2022-07-26T12:52:41.446Z,1.50
2022-07-26T12:55:13.917Z,1.55
2022-07-26T12:57:46.150Z,2.00
2022-07-26T13:00:18.587Z,1.58
2022-07-26T13:02:46.996Z,1.60
2022-07-26T13:05:15.946Z,1.55
2022-07-26T13:07:44.060Z,1.90
2022-07-26T13:13:00.645Z,1.63
2022-07-26T13:15:35.891Z,1.50
2022-07-26T13:18:06.910Z,1.42
2022-07-26T13:20:34.950Z,1.60
2022-07-26T13:23:03.542Z,1.50
2022-07-26T13:25:38.362Z,1.70
2022-07-26T13:28:08.579Z,1.20
2022-07-26T13:30:43.035Z,1.30
2022-07-26T13:33:11.900Z,1.40
2022-07-26T13:35:42.301Z,1.30
2022-07-26T13:38:10.206Z,1.20
2022-07-26T13:40:38.254Z,1.10
2022-07-26T13:43:06.634Z,1.15
2022-07-26T13:45:34.661Z,1.25
2022-07-26T13:48:04.339Z,1.25
2022-07-26T13:50:32.522Z,1.60
2022-07-26T13:53:00.486Z,1.40
2022-07-26T13:55:28.416Z,1.58
2022-07-26T13:57:57.973Z,1.20
2022-07-26T14:00:27.175Z,1.10
2022-07-26T14:02:56.323Z,1.40
2022-07-26T14:05:26.286Z,1.20
2022-07-26T14:07:55.077Z,0.97
2022-07-26T14:10:24.132Z,1.38
2022-07-26T14:12:52.549Z,1.30
2022-07-26T14:15:23.185Z,1.00
2022-07-26T14:17:51.941Z,1.20
2022-07-26T14:20:20.787Z,1.30
2022-07-26T14:22:53.426Z,1.20
2022-07-26T14:25:21.827Z,1.23
2022-07-26T14:27:50.243Z,1.20
2022-07-26T14:30:18.214Z,1.50
2022-07-26T14:32:47.037Z,1.20
2022-07-26T14:35:16.472Z,1.60
2022-07-26T14:37:45.563Z,1.50
2022-07-26T14:40:17.384Z,1.40
2022-07-26T14:42:46.218Z,1.30
2022-07-26T14:45:15.420Z,1.40
2022-07-26T14:47:43.415Z,1.30
2022-07-26T14:50:12.919Z,1.23
2022-07-26T14:55:29.915Z,1.30
2022-07-26T14:57:57.800Z,1.30
2022-07-26T15:00:26.372Z,1.40
2022-07-26T15:02:54.360Z,1.20
2022-07-26T15:05:23.285Z,1.80
2022-07-26T15:07:51.242Z,1.42
2022-07-26T15:10:29.087Z,1.33
2022-07-26T15:12:58.678Z,1.13
2022-07-26T15:15:27.149Z,1.40
2022-07-26T15:17:55.221Z,1.40
2022-07-26T15:20:24.090Z,1.70
2022-07-26T15:22:53.848Z,1.80
2022-07-26T15:25:22.640Z,2.00
2022-07-26T15:27:50.762Z,1.80
2022-07-26T15:30:20.260Z,1.65
2022-07-26T15:32:48.268Z,1.30
2022-07-26T15:35:17.546Z,1.63
2022-07-26T15:37:45.464Z,1.60
2022-07-26T15:40:13.990Z,1.30
2022-07-26T15:42:44.303Z,1.20
2022-07-26T15:45:13.915Z,1.60
2022-07-26T15:48:10.568Z,1.40
2022-07-26T15:50:31.997Z,1.10
2022-07-26T15:52:59.977Z,1.50
2022-07-26T15:55:28.168Z,1.50
2022-07-26T15:57:56.257Z,1.20
2022-07-26T16:00:24.169Z,1.27
2022-07-26T16:02:53.748Z,1.40
2022-07-26T16:05:21.834Z,1.10
2022-07-26T16:07:49.776Z,1.15
2022-07-26T16:10:17.690Z,1.37
2022-07-26T16:12:45.644Z,1.10
2022-07-26T16:15:13.848Z,1.38
2022-07-26T16:17:41.815Z,1.20
2022-07-26T16:20:11.539Z,1.30
2022-07-26T16:22:41.797Z,1.50
2022-07-26T16:25:13.097Z,1.30
2022-07-26T16:27:42.089Z,1.40
2022-07-26T16:30:11.309Z,1.40
2022-07-26T16:32:39.262Z,1.50
2022-07-26T16:35:08.014Z,1.30
2022-07-26T16:37:37.292Z,1.50
2022-07-26T16:40:06.555Z,1.23
2022-07-26T16:42:34.500Z,1.30
2022-07-26T16:45:04.827Z,1.35
2022-07-26T16:47:33.253Z,1.10
2022-07-26T16:50:01.159Z,1.10
2022-07-26T16:52:29.120Z,1.43
2022-07-26T16:54:58.430Z,1.20
2022-07-26T16:57:28.038Z,1.30
2022-07-26T16:59:55.947Z,1.20
2022-07-26T17:02:24.064Z,1.20
2022-07-26T17:04:52.203Z,1.30
2022-07-26T17:07:25.614Z,1.20
2022-07-26T17:09:55.471Z,0.90
2022-07-26T17:12:25.026Z,1.30
2022-07-26T17:14:53.194Z,1.23
2022-07-26T17:17:21.182Z,1.20
2022-07-26T17:19:49.404Z,1.05
2022-07-26T17:22:18.231Z,1.40
2022-07-26T17:24:46.250Z,1.20
2022-07-26T17:27:14.556Z,1.10
2022-07-26T17:29:44.195Z,1.30
2022-07-26T17:32:23.298Z,1.10
2022-07-26T17:34:53.823Z,1.10
2022-07-26T17:37:21.919Z,1.20
2022-07-26T17:39:52.386Z,1.10
2022-07-26T17:42:21.296Z,1.10
2022-07-26T17:44:50.727Z,1.20
2022-07-26T17:47:29.101Z,1.00
2022-07-26T17:50:09.005Z,1.00
2022-07-26T17:52:46.856Z,1.20
2022-07-26T17:55:14.764Z,1.10
2022-07-26T17:57:43.067Z,1.30
2022-07-26T18:00:14.172Z,1.53
2022-07-26T18:02:42.233Z,1.27
2022-07-26T18:05:11.046Z,1.50
2022-07-26T18:07:39.578Z,1.20
2022-07-26T18:10:10.014Z,1.20
2022-07-26T18:12:38.205Z,1.00
2022-07-26T18:15:07.517Z,1.00
2022-07-26T18:17:37.401Z,1.38
2022-07-26T18:20:07.322Z,1.00
2022-07-26T18:22:35.299Z,1.20
2022-07-26T18:25:03.831Z,1.30
2022-07-26T18:27:31.881Z,1.15
2022-07-26T18:30:00.570Z,1.00
2022-07-26T18:32:28.538Z,1.40
2022-07-26T18:34:57.842Z,1.42
2022-07-26T18:37:25.787Z,1.50
2022-07-26T18:39:57.599Z,1.30
2022-07-26T18:42:26.201Z,1.45
2022-07-26T18:44:54.242Z,1.45
2022-07-26T18:47:22.341Z,1.60
2022-07-26T18:49:50.314Z,1.48
2022-07-26T18:52:31.469Z,1.20
2022-07-26T18:55:02.220Z,1.30
2022-07-26T18:57:30.263Z,1.20
2022-07-26T18:59:58.210Z,1.00
2022-07-26T19:02:26.342Z,1.30
2022-07-26T19:04:54.484Z,1.20
2022-07-26T19:07:23.802Z,0.90
2022-07-26T19:09:57.853Z,0.90
2022-07-26T19:12:27.029Z,1.10
2022-07-26T19:14:55.102Z,1.10
2022-07-26T19:17:23.209Z,0.80
2022-07-26T19:19:51.203Z,0.90
2022-07-26T19:22:19.311Z,0.90
2022-07-26T19:24:50.145Z,1.00
2022-07-26T19:27:18.393Z,1.13
2022-07-26T19:29:46.314Z,1.17
2022-07-26T19:32:16.208Z,1.02
2022-07-26T19:34:44.146Z,1.50
2022-07-26T19:37:12.241Z,1.33
2022-07-26T19:39:40.338Z,1.10
2022-07-26T19:42:09.845Z,1.05
2022-07-26T19:44:37.789Z,1.02
2022-07-26T19:47:05.809Z,1.30
2022-07-26T19:49:33.746Z,1.05
2022-07-26T19:52:01.725Z,1.33
2022-07-26T19:54:29.660Z,1.38
2022-07-26T19:56:57.671Z,1.50
2022-07-26T19:59:27.059Z,0.95
2022-07-26T20:01:58.230Z,1.08
2022-07-26T20:04:26.529Z,0.98
2022-07-26T20:06:55.187Z,1.10
2022-07-26T20:09:23.191Z,0.90
2022-07-26T20:11:51.779Z,1.00
2022-07-26T20:14:20.822Z,0.95
2022-07-26T20:16:55.759Z,0.90
2022-07-26T20:19:24.899Z,0.90
2022-07-26T20:21:52.828Z,1.20
2022-07-26T20:24:20.707Z,0.90
2022-07-26T20:26:48.790Z,1.10
2022-07-26T20:29:16.709Z,1.10
2022-07-26T20:31:44.660Z,1.00
2022-07-26T20:34:14.106Z,1.10
2022-07-26T20:36:42.087Z,0.90
2022-07-26T20:39:10.845Z,1.10
2022-07-26T20:41:39.157Z,0.80
2022-07-26T20:44:07.168Z,0.90
2022-07-26T20:46:39.748Z,0.90
2022-07-26T20:49:09.078Z,1.00
2022-07-26T20:51:39.174Z,0.95
2022-07-26T20:54:10.142Z,1.03
2022-07-26T20:56:38.601Z,0.80
2022-07-26T20:59:06.794Z,0.93
2022-07-26T21:01:35.095Z,1.00
2022-07-26T21:04:03.789Z,1.10
2022-07-26T21:06:33.144Z,0.90
2022-07-26T21:09:09.635Z,0.90
2022-07-26T21:11:38.789Z,0.90
2022-07-26T21:14:06.750Z,0.80
2022-07-26T21:16:34.845Z,0.70
2022-07-26T21:19:03.034Z,0.93
2022-07-26T21:21:31.031Z,1.10
2022-07-26T21:23:58.992Z,1.00
2022-07-26T21:26:28.290Z,0.90
2022-07-26T21:28:56.178Z,0.98
2022-07-26T21:31:24.165Z,0.90
2022-07-26T21:33:52.705Z,0.97
2022-07-26T21:36:20.582Z,1.00
2022-07-26T21:38:48.456Z,1.10
2022-07-26T21:41:16.396Z,0.80
2022-07-26T21:43:45.649Z,0.70
2022-07-26T21:46:14.096Z,1.00
2022-07-26T21:48:42.633Z,1.00
2022-07-26T21:51:10.666Z,1.00
2022-07-26T21:53:38.649Z,0.80
2022-07-26T21:56:06.654Z,1.02
2022-07-26T21:58:36.846Z,1.00
2022-07-26T22:01:07.398Z,1.30
2022-07-26T22:03:37.355Z,1.13
2022-07-26T22:06:06.523Z,1.00
2022-07-26T22:08:35.090Z,1.20
2022-07-26T22:11:03.278Z,1.00
2022-07-26T22:13:31.844Z,1.08
2022-07-26T22:15:59.807Z,0.80
2022-07-26T22:18:29.192Z,0.80
2022-07-26T22:20:57.132Z,1.23
2022-07-26T22:23:30.027Z,0.80
2022-07-26T22:25:59.121Z,1.00
2022-07-26T22:28:27.244Z,1.00
2022-07-26T22:30:55.701Z,0.80
2022-07-26T22:33:24.081Z,0.90
2022-07-26T22:35:53.961Z,1.00
2022-07-26T22:38:21.896Z,1.00
2022-07-26T22:40:49.840Z,1.30
2022-07-26T22:43:17.870Z,0.80
2022-07-26T22:45:45.862Z,0.80
2022-07-26T22:48:13.861Z,1.00
2022-07-26T22:50:41.766Z,0.80
2022-07-26T22:53:11.069Z,0.90
2022-07-26T22:55:39.109Z,0.80
2022-07-26T22:58:07.076Z,1.10
2022-07-26T23:00:35.180Z,1.10
2022-07-26T23:03:03.183Z,0.93
2022-07-26T23:05:45.790Z,1.00
2022-07-26T23:11:04.833Z,1.20
2022-07-26T23:13:32.886Z,1.10
2022-07-26T23:16:01.891Z,1.20
2022-07-26T23:18:30.853Z,1.30
2022-07-26T23:20:59.237Z,1.10
2022-07-26T23:23:29.214Z,1.00
2022-07-26T23:25:58.960Z,1.10
2022-07-26T23:28:36.530Z,1.40
2022-07-26T23:31:07.840Z,1.52
2022-07-26T23:33:52.203Z,1.20
2022-07-26T23:36:23.088Z,1.10
2022-07-26T23:38:52.875Z,1.10
2022-07-26T23:41:20.900Z,1.00
2022-07-26T23:43:48.996Z,1.40
2022-07-26T23:46:17.037Z,1.10
2022-07-26T23:48:45.158Z,1.30
2022-07-26T23:51:13.304Z,1.00
2022-07-26T23:53:41.524Z,0.90
2022-07-26T23:56:10.855Z,0.90
2022-07-26T23:58:38.871Z,1.20
